Atlantic Municipal Airport
Tuesday 8:15 AM
Weather Sunny
VFR
Temperature 61°
Dew Point 54°
Feels Like 61°
Relative Humidity 77
%
Visibility 10
mi
Pressure 1019.0
mb
Wind Direction None
Wind Speed Calm
Last Hour Precip 0.00
"
KAIO 281315Z AUTO 00000KT 10SM CLR 16/12 A3009 RMK AO2

Recent Observations

Time Present Weather Temp DP Feels RH% Vsby Pressure Ceiling Direction Speed Gust 1h Precip
8:15AM
VFR
61° 54° 61° 77
%
10
mi
1019.0
mb
None None Calm 0.00"
KAIO 281315Z AUTO 00000KT 10SM CLR 16/12 A3009 RMK AO2
7:55AM
VFR
59° 54° 59° 82
%
10
mi
1019.0
mb
None None Calm 0.00"
KAIO 281255Z AUTO 00000KT 10SM CLR 15/12 A3009 RMK AO2
7:35AM
VFR
57° 54° 57° 88
%
10
mi
1019.0
mb
None None Calm 0.00"
KAIO 281235Z AUTO 00000KT 10SM CLR 14/12 A3009 RMK AO2
7:15AM
VFR
54° 52° 54° 94
%
10
mi
1018.6
mb
None SW 3
mph
0.00"
KAIO 281215Z AUTO 22003KT 10SM CLR 12/11 A3008 RMK AO2
6:55AM
VFR
52° 50° 52° 94
%
10
mi
1019.0
mb
None None Calm 0.00"
KAIO 281155Z AUTO 00000KT 10SM CLR 11/10 A3009 RMK AO2
6:35AM
VFR
50° 50° 50° 100
%
10
mi
1019.0
mb
None None Calm 0.00"
KAIO 281135Z AUTO 00000KT 10SM CLR 10/10 A3009 RMK AO2
6:15AM
VFR
50° 48° 50° 93
%
10
mi
1018.6
mb
None SW 3
mph
0.00"
KAIO 281115Z AUTO 22003KT 10SM CLR 10/09 A3008 RMK AO2
5:55AM
VFR
50° 48° 50° 93
%
10
mi
1018.3
mb
None None Calm 0.00"
KAIO 281055Z AUTO 00000KT 10SM CLR 10/09 A3007 RMK AO2
5:35AM
VFR
50° 50° 50° 100
%
10
mi
1018.6
mb
None None Calm 0.00"
KAIO 281035Z AUTO 00000KT 10SM CLR 10/10 A3008 RMK AO2
5:15AM
VFR
52° 50° 52° 94
%
10
mi
1018.6
mb
None None Calm 0.00"
KAIO 281015Z AUTO 00000KT 10SM CLR 11/10 A3008 RMK AO2
4:55AM
VFR
50° 50° 50° 100
%
10
mi
1018.3
mb
None SW 3
mph
0.00"
KAIO 280955Z AUTO 23003KT 10SM CLR 10/10 A3007 RMK AO2
4:35AM
VFR
52° 48° 52° 87
%
10
mi
1018.3
mb
None SW 5
mph
0.00"
KAIO 280935Z AUTO 22004KT 10SM CLR 11/09 A3007 RMK AO2
4:15AM
VFR
54° 50° 54° 88
%
10
mi
1017.9
mb
None None Calm 0.00"
KAIO 280915Z AUTO 00000KT 10SM CLR 12/10 A3006 RMK AO2
3:55AM
VFR
52° 50° 52° 94
%
10
mi
1017.9
mb
None None Calm 0.00"
KAIO 280855Z AUTO 00000KT 10SM CLR 11/10 A3006 RMK AO2
3:35AM
VFR
54° 48° 54° 82
%
10
mi
1017.6
mb
None N 5
mph
0.00"
KAIO 280835Z AUTO 36004KT 10SM CLR 12/09 A3005 RMK AO2
3:15AM
VFR
55° 50° 55° 82
%
10
mi
1017.3
mb
None N 5
mph
0.00"
KAIO 280815Z AUTO 36004KT 10SM CLR 13/10 A3004 RMK AO2
2:55AM
VFR
57° 48° 57° 72
%
10
mi
1017.3
mb
None NNW 5
mph
0.00"
KAIO 280755Z AUTO 34004KT 10SM CLR 14/09 A3004 RMK AO2
2:35AM
VFR
57° 50° 57° 77
%
10
mi
1017.3
mb
None N 5
mph
0.00"
KAIO 280735Z AUTO 01004KT 10SM CLR 14/10 A3004 RMK AO2
2:15AM
VFR
59° 50° 59° 72
%
10
mi
1017.3
mb
None NW 7
mph
0.00"
KAIO 280715Z AUTO 32006KT 10SM CLR 15/10 A3004 RMK AO2
1:55AM
VFR
61° 48° 61° 63
%
10
mi
1016.9
mb
None NW 9
mph
0.00"
KAIO 280655Z AUTO 31008KT 10SM CLR 16/09 A3003 RMK AO2
Click here to show this page without METARs/TAFs included